Time;durP1;ratioP1;P1;durP2;ratioP2;P2;SDS_P1;SDS_P2;PMS_P1;PMS_P2;Temp;Humidity;BMP_temperature;BMP_pressure;BME280_temperature;BME280_humidity;BME280_pressure;Samples;Min_cycle;Max_cycle;Signal;HPM_P1;HPM_P2
2022/02/13 00:00:50;;;;;;;15.15;9.35;;;7.10;99.90;;;;;;5050859;28;20045;-67
2022/02/13 00:03:17;;;;;;;15.82;9.20;;;7.10;99.90;;;;;;5051313;28;20550;-67
2022/02/13 00:05:44;;;;;;;15.32;8.77;;;7.10;99.90;;;;;;5050609;28;20082;-67
2022/02/13 00:08:11;;;;;;;12.40;8.80;;;7.10;99.90;;;;;;5028091;28;20401;-67
2022/02/13 00:10:58;;;;;;;17.20;9.23;;;7.10;99.90;;;;;;5041077;28;20049;-67
2022/02/13 00:13:25;;;;;;;14.73;9.32;;;7.20;99.90;;;;;;5050553;28;20053;-67
2022/02/13 00:15:52;;;;;;;14.55;8.55;;;7.20;99.90;;;;;;5050445;28;20052;-67
2022/02/13 00:18:19;;;;;;;15.63;9.50;;;7.20;99.90;;;;;;5047302;28;20045;-67
2022/02/13 00:20:46;;;;;;;15.35;8.85;;;7.20;99.90;;;;;;5051909;28;20045;-67
2022/02/13 00:23:13;;;;;;;14.30;8.52;;;7.30;99.90;;;;;;5044081;28;20049;-67
2022/02/13 00:25:42;;;;;;;19.40;10.38;;;7.30;99.90;;;;;;5050365;28;20067;-67
2022/02/13 00:28:12;;;;;;;11.20;8.65;;;7.30;99.90;;;;;;5026654;28;20053;-67
2022/02/13 00:30:39;;;;;;;17.02;8.38;;;7.30;99.90;;;;;;5037630;28;20501;-67
2022/02/13 00:33:06;;;;;;;17.98;8.80;;;7.30;99.90;;;;;;5051465;28;20060;-67
2022/02/13 00:35:33;;;;;;;17.00;8.68;;;7.30;99.90;;;;;;5051606;28;20492;-67
2022/02/13 00:38:00;;;;;;;14.02;8.38;;;7.30;99.90;;;;;;5051112;28;20056;-67
2022/02/13 00:40:27;;;;;;;15.52;8.88;;;7.30;99.90;;;;;;5051217;28;20064;-67
2022/02/13 00:42:54;;;;;;;17.85;9.43;;;7.30;99.90;;;;;;5051484;28;20041;-67
2022/02/13 00:45:21;;;;;;;12.65;8.70;;;7.30;99.90;;;;;;5041319;28;20048;-67
2022/02/13 00:47:47;;;;;;;14.20;9.30;;;7.30;99.90;;;;;;5036498;28;20045;-67
2022/02/13 00:50:14;;;;;;;12.55;8.77;;;7.40;99.90;;;;;;5049948;28;20056;-69
2022/02/13 00:52:41;;;;;;;14.10;7.95;;;7.30;99.90;;;;;;5048177;28;20481;-67
2022/02/13 00:55:08;;;;;;;20.38;8.68;;;7.30;99.90;;;;;;5051096;28;20059;-67
2022/02/13 00:57:35;;;;;;;16.10;9.18;;;7.30;99.90;;;;;;5050163;28;20057;-68
2022/02/13 01:00:06;;;;;;;16.00;8.32;;;7.40;99.90;;;;;;5047992;28;20051;-68
2022/02/13 01:02:33;;;;;;;16.95;9.43;;;7.40;99.90;;;;;;5051143;28;20049;-68
2022/02/13 01:05:00;;;;;;;15.98;9.98;;;7.30;99.90;;;;;;5049920;28;20052;-67
2022/02/13 01:07:27;;;;;;;18.48;9.02;;;7.40;99.90;;;;;;5033266;28;20273;-68
2022/02/13 01:09:54;;;;;;;17.35;8.55;;;7.40;99.90;;;;;;5040279;28;20049;-68
2022/02/13 01:12:20;;;;;;;21.77;10.77;;;7.40;99.90;;;;;;5051243;28;20492;-68
2022/02/13 01:14:47;;;;;;;18.23;9.25;;;7.40;99.90;;;;;;5050027;28;20052;-67
2022/02/13 01:17:14;;;;;;;13.82;8.82;;;7.40;99.90;;;;;;5048180;28;20440;-70
2022/02/13 01:19:41;;;;;;;17.15;9.82;;;7.40;99.90;;;;;;5038948;28;20539;-67
2022/02/13 01:22:10;;;;;;;13.68;9.25;;;7.40;99.90;;;;;;5044301;28;20048;-67
2022/02/13 01:24:37;;;;;;;19.27;9.93;;;7.40;99.90;;;;;;5050486;28;20053;-68
2022/02/13 01:27:04;;;;;;;19.25;10.15;;;7.40;99.90;;;;;;5051373;28;20052;-68
2022/02/13 01:29:31;;;;;;;18.10;9.30;;;7.40;99.90;;;;;;5045614;28;20049;-67
2022/02/13 01:31:58;;;;;;;18.95;9.27;;;7.40;99.90;;;;;;5050367;28;20056;-68
2022/02/13 01:34:26;;;;;;;20.48;9.95;;;7.40;99.90;;;;;;5046123;28;20056;-67
2022/02/13 01:36:53;;;;;;;16.73;9.27;;;7.40;99.90;;;;;;5039470;28;20060;-67
2022/02/13 01:39:20;;;;;;;15.77;9.07;;;7.40;99.90;;;;;;5050120;28;20044;-71
2022/02/13 01:41:49;;;;;;;16.70;8.70;;;7.30;99.90;;;;;;5047229;28;20053;-67
2022/02/13 01:44:26;;;;;;;14.95;9.95;;;7.40;99.90;;;;;;5051607;28;20480;-67
2022/02/13 01:46:54;;;;;;;17.08;9.15;;;7.40;99.90;;;;;;5053034;28;20045;-67
2022/02/13 01:49:21;;;;;;;18.45;9.55;;;7.40;99.90;;;;;;5049082;28;20040;-67
2022/02/13 01:51:48;;;;;;;16.70;8.30;;;7.40;99.90;;;;;;5028876;28;20052;-67
2022/02/13 01:54:15;;;;;;;22.17;10.07;;;7.40;99.90;;;;;;5038617;28;20057;-68
2022/02/13 01:56:42;;;;;;;17.80;9.20;;;7.40;99.90;;;;;;5043571;28;20049;-67
2022/02/13 01:59:09;;;;;;;16.00;10.25;;;7.40;99.90;;;;;;5045136;28;20070;-68
2022/02/13 02:01:39;;;;;;;21.55;10.60;;;7.40;99.90;;;;;;5039696;28;20041;-68
2022/02/13 02:04:06;;;;;;;14.68;9.15;;;7.40;99.90;;;;;;5046668;28;20053;-68
2022/02/13 02:06:33;;;;;;;16.40;8.57;;;7.40;99.90;;;;;;5054305;28;20049;-68
2022/02/13 02:09:00;;;;;;;18.02;11.13;;;7.40;99.90;;;;;;5053678;28;20045;-68
2022/02/13 02:11:27;;;;;;;17.05;9.70;;;7.40;99.90;;;;;;5053063;28;20396;-68
2022/02/13 02:13:54;;;;;;;16.23;9.35;;;7.40;99.90;;;;;;5030412;28;20056;-71
2022/02/13 02:16:21;;;;;;;17.38;7.78;;;7.40;99.90;;;;;;5049605;28;20115;-67
2022/02/13 02:18:48;;;;;;;17.85;10.13;;;7.50;99.90;;;;;;5047905;28;20071;-68
2022/02/13 02:21:15;;;;;;;14.63;8.15;;;7.50;99.90;;;;;;5050116;28;20056;-68
2022/02/13 02:23:42;;;;;;;14.18;8.20;;;7.50;99.90;;;;;;5027060;28;20049;-67
2022/02/13 02:26:09;;;;;;;17.90;7.82;;;7.50;99.90;;;;;;5052796;28;20515;-67
2022/02/13 02:28:36;;;;;;;16.00;7.82;;;7.50;99.90;;;;;;5045660;28;20045;-68
2022/02/13 02:31:03;;;;;;;20.98;8.10;;;7.50;99.90;;;;;;5054097;28;20106;-68
2022/02/13 02:33:30;;;;;;;19.40;7.28;;;7.50;99.90;;;;;;5052401;28;20060;-67
2022/02/13 02:35:57;;;;;;;15.18;8.32;;;7.50;99.90;;;;;;5049861;28;20053;-67
2022/02/13 02:38:24;;;;;;;15.50;7.53;;;7.50;99.90;;;;;;5053585;28;20041;-67
2022/02/13 02:40:51;;;;;;;13.48;8.40;;;7.50;99.90;;;;;;5053698;28;20497;-67
2022/02/13 02:43:18;;;;;;;17.77;7.57;;;7.50;99.90;;;;;;5053304;28;20067;-67
2022/02/13 02:45:45;;;;;;;17.25;8.23;;;7.50;99.90;;;;;;5047050;28;20045;-67
2022/02/13 02:48:12;;;;;;;17.33;7.93;;;7.50;99.90;;;;;;5040395;28;20041;-68
2022/02/13 02:50:39;;;;;;;19.92;9.20;;;7.50;99.90;;;;;;5047674;28;20044;-67
2022/02/13 02:53:06;;;;;;;12.02;7.03;;;7.50;99.90;;;;;;5051089;28;20053;-68
2022/02/13 02:55:33;;;;;;;18.08;7.45;;;7.50;99.90;;;;;;5037747;28;20045;-67
2022/02/13 02:58:01;;;;;;;20.90;6.93;;;7.50;99.90;;;;;;5048610;28;20051;-69
2022/02/13 03:00:28;;;;;;;16.02;7.82;;;7.50;99.90;;;;;;5051705;28;20049;-67
2022/02/13 03:02:55;;;;;;;14.15;6.72;;;7.50;99.90;;;;;;5052054;28;20065;-67
2022/02/13 03:05:22;;;;;;;13.18;6.93;;;7.50;99.90;;;;;;5039052;28;20056;-68
2022/02/13 03:07:49;;;;;;;10.68;6.45;;;7.50;99.90;;;;;;5051022;28;20393;-68
2022/02/13 03:10:16;;;;;;;15.07;6.28;;;7.50;99.90;;;;;;5053116;28;20120;-68
2022/02/13 03:12:43;;;;;;;15.07;6.65;;;7.50;99.90;;;;;;5053158;28;20481;-67
2022/02/13 03:15:10;;;;;;;17.40;7.50;;;7.50;99.90;;;;;;5044195;28;20045;-68
2022/02/13 03:17:37;;;;;;;13.43;6.38;;;7.50;99.90;;;;;;5049921;28;20067;-67
2022/02/13 03:20:04;;;;;;;14.57;6.22;;;7.50;99.90;;;;;;5052622;28;20072;-68
2022/02/13 03:22:31;;;;;;;14.00;7.47;;;7.40;99.90;;;;;;5040510;28;20377;-68
2022/02/13 03:24:59;;;;;;;14.50;6.70;;;7.40;99.90;;;;;;5045975;28;20053;-68
2022/02/13 03:27:26;;;;;;;15.38;7.15;;;7.40;99.90;;;;;;5052447;28;20045;-68
2022/02/13 03:29:53;;;;;;;14.85;6.32;;;7.40;99.90;;;;;;5052609;28;20049;-68
2022/02/13 03:32:20;;;;;;;13.45;6.30;;;7.40;99.90;;;;;;5050938;28;20063;-67
2022/02/13 03:34:47;;;;;;;17.35;6.80;;;7.40;99.90;;;;;;5050843;28;20049;-68
2022/02/13 03:37:15;;;;;;;10.45;5.88;;;7.40;99.90;;;;;;5050909;28;20098;-68
2022/02/13 03:39:43;;;;;;;19.83;6.90;;;7.50;99.90;;;;;;5050851;28;20498;-67
2022/02/13 03:42:12;;;;;;;11.55;6.85;;;7.50;99.90;;;;;;5051923;28;20044;-67
2022/02/13 03:44:39;;;;;;;20.38;6.57;;;7.50;99.90;;;;;;5050757;28;20124;-68
2022/02/13 03:47:07;;;;;;;15.63;7.22;;;7.50;99.90;;;;;;5047796;28;20045;-68
2022/02/13 03:49:34;;;;;;;21.08;7.35;;;7.50;99.90;;;;;;5045810;28;20048;-68
2022/02/13 03:52:01;;;;;;;18.42;8.27;;;7.50;99.90;;;;;;5041605;28;20050;-68
2022/02/13 03:54:28;;;;;;;16.85;8.52;;;7.50;99.90;;;;;;5047498;28;20059;-67
2022/02/13 03:56:55;;;;;;;22.23;8.02;;;7.50;99.90;;;;;;5048942;28;20496;-68
2022/02/13 03:59:22;;;;;;;15.68;6.68;;;7.60;99.90;;;;;;5049873;28;20055;-68
2022/02/13 04:01:48;;;;;;;20.15;7.70;;;7.50;99.90;;;;;;5043107;28;20051;-68
2022/02/13 04:04:15;;;;;;;18.88;6.95;;;7.60;99.90;;;;;;5051182;28;20045;-67
2022/02/13 04:06:42;;;;;;;22.25;7.47;;;7.60;99.90;;;;;;5049703;28;20406;-68
2022/02/13 04:09:09;;;;;;;18.08;6.72;;;7.60;99.90;;;;;;5049996;28;20052;-68
2022/02/13 04:11:36;;;;;;;17.50;7.65;;;7.60;99.90;;;;;;5050139;28;20053;-67
2022/02/13 04:14:03;;;;;;;13.10;7.00;;;7.60;99.90;;;;;;5050448;28;20501;-68
2022/02/13 04:16:30;;;;;;;15.70;7.80;;;7.60;99.90;;;;;;5050469;28;20041;-68
2022/02/13 04:18:57;;;;;;;18.23;6.60;;;7.60;99.90;;;;;;5045470;28;20045;-68
2022/02/13 04:21:24;;;;;;;14.27;6.70;;;7.70;99.90;;;;;;5051153;28;20059;-68
2022/02/13 04:23:51;;;;;;;15.95;7.40;;;7.60;99.90;;;;;;5051707;28;20045;-68
2022/02/13 04:26:18;;;;;;;18.10;7.47;;;7.70;99.90;;;;;;5035120;28;20056;-71
2022/02/13 04:28:45;;;;;;;14.30;5.70;;;7.70;99.90;;;;;;5050977;28;20059;-70
2022/02/13 04:31:12;;;;;;;18.27;6.47;;;7.70;99.90;;;;;;5052347;28;20065;-68
2022/02/13 04:33:39;;;;;;;18.42;7.85;;;7.70;99.90;;;;;;5051369;28;20056;-68
2022/02/13 04:36:06;;;;;;;16.15;5.97;;;7.70;99.90;;;;;;5033824;28;20049;-69
2022/02/13 04:38:32;;;;;;;14.43;6.40;;;7.70;99.90;;;;;;5051479;28;20056;-68
2022/02/13 04:41:00;;;;;;;17.30;6.63;;;7.80;99.90;;;;;;5050944;28;20049;-68
2022/02/13 04:43:27;;;;;;;16.42;6.75;;;7.70;99.90;;;;;;5049597;28;20045;-69
2022/02/13 04:45:54;;;;;;;15.38;6.00;;;7.80;99.90;;;;;;5051521;28;20099;-68
2022/02/13 04:48:21;;;;;;;18.65;7.65;;;7.80;99.90;;;;;;5043843;28;20720;-68
2022/02/13 04:50:48;;;;;;;15.48;5.70;;;7.80;99.90;;;;;;5051395;28;20080;-69
2022/02/13 04:53:15;;;;;;;14.27;6.22;;;7.80;99.90;;;;;;5026407;28;20052;-68
2022/02/13 04:55:42;;;;;;;23.20;8.23;;;7.90;99.90;;;;;;5030888;28;20516;-68
2022/02/13 04:58:09;;;;;;;22.80;7.13;;;7.90;99.90;;;;;;5050838;28;20900;-69
2022/02/13 05:00:36;;;;;;;14.48;4.90;;;7.90;99.90;;;;;;5050327;28;20056;-68
2022/02/13 05:03:03;;;;;;;18.85;6.82;;;7.90;99.90;;;;;;5050045;28;20120;-68
2022/02/13 05:05:30;;;;;;;18.10;5.25;;;7.90;99.90;;;;;;5051080;28;20572;-68
2022/02/13 05:07:57;;;;;;;17.98;5.50;;;7.90;99.90;;;;;;5051154;28;20052;-68
2022/02/13 05:10:23;;;;;;;18.25;6.00;;;7.90;99.90;;;;;;5043673;28;20048;-68
2022/02/13 05:12:51;;;;;;;12.38;5.25;;;7.90;99.90;;;;;;5012743;28;20050;-68
2022/02/13 05:15:19;;;;;;;15.80;5.85;;;7.90;99.90;;;;;;5051132;28;20412;-68
2022/02/13 05:17:46;;;;;;;14.88;5.72;;;7.90;99.90;;;;;;5049862;28;20065;-68
2022/02/13 05:20:13;;;;;;;17.73;5.95;;;7.80;99.90;;;;;;5023642;28;20404;-68
2022/02/13 05:22:40;;;;;;;11.43;6.00;;;7.80;99.90;;;;;;5046794;28;20045;-68
2022/02/13 05:25:08;;;;;;;20.10;5.82;;;7.80;99.90;;;;;;5052300;28;20499;-68
2022/02/13 05:27:35;;;;;;;12.85;4.68;;;7.80;99.90;;;;;;5053605;28;20044;-68
2022/02/13 05:30:03;;;;;;;22.23;6.93;;;7.80;99.90;;;;;;5054792;28;20048;-69
2022/02/13 05:32:30;;;;;;;20.27;5.68;;;7.80;99.90;;;;;;5053749;28;20493;-68
2022/02/13 05:34:57;;;;;;;16.25;5.13;;;7.80;99.90;;;;;;5052520;28;20504;-68
2022/02/13 05:37:24;;;;;;;19.85;6.15;;;7.70;99.90;;;;;;5053029;28;20041;-71
2022/02/13 05:39:51;;;;;;;13.20;5.10;;;7.70;99.90;;;;;;5053577;28;20059;-69
2022/02/13 05:42:18;;;;;;;20.83;6.70;;;7.70;99.90;;;;;;5053209;28;20056;-68
2022/02/13 05:44:45;;;;;;;13.23;5.20;;;7.70;99.90;;;;;;5054884;28;20038;-69
2022/02/13 05:47:12;;;;;;;14.18;5.53;;;7.60;99.90;;;;;;5053541;28;20400;-69
2022/02/13 05:49:39;;;;;;;32.45;17.63;;;7.70;99.90;;;;;;5048838;28;20434;-69
2022/02/13 05:52:06;;;;;;;17.02;7.28;;;7.70;99.90;;;;;;5050698;28;20044;-62
2022/02/13 05:54:33;;;;;;;16.02;6.20;;;7.70;99.90;;;;;;5005170;28;20052;-63
2022/02/13 05:57:00;;;;;;;18.73;5.63;;;7.70;99.90;;;;;;5040131;28;20056;-62
2022/02/13 05:59:27;;;;;;;13.82;4.57;;;7.70;99.90;;;;;;5053718;28;20053;-62
2022/02/13 06:01:54;;;;;;;10.82;5.10;;;7.70;99.90;;;;;;5052942;28;20067;-62
2022/02/13 06:04:22;;;;;;;14.50;4.95;;;7.70;99.90;;;;;;5029270;28;20082;-63
2022/02/13 06:06:50;;;;;;;17.33;4.60;;;7.70;99.90;;;;;;5052143;28;20048;-63
2022/02/13 06:09:21;;;;;;;19.65;5.55;;;7.70;99.90;;;;;;5036306;28;20452;-66
2022/02/13 06:11:48;;;;;;;18.48;5.53;;;7.70;99.90;;;;;;5052409;28;20081;-62
2022/02/13 06:14:15;;;;;;;12.43;4.47;;;7.70;99.90;;;;;;5036484;28;20048;-62
2022/02/13 06:16:42;;;;;;;14.43;4.78;;;7.70;99.90;;;;;;5052688;28;20060;-63
2022/02/13 06:19:09;;;;;;;17.40;4.15;;;7.70;99.90;;;;;;5028819;28;20069;-63
2022/02/13 06:21:36;;;;;;;13.40;4.57;;;7.70;99.90;;;;;;5046169;28;20405;-62
2022/02/13 06:24:03;;;;;;;10.68;4.53;;;7.70;99.90;;;;;;5049850;28;20049;-63
2022/02/13 06:26:35;;;;;;;12.82;4.75;;;7.70;99.90;;;;;;5041811;28;20057;-62
2022/02/13 06:29:03;;;;;;;8.77;4.60;;;7.70;99.90;;;;;;5052469;28;20390;-63
2022/02/13 06:31:30;;;;;;;11.18;5.03;;;7.70;99.90;;;;;;5052685;28;20054;-63
2022/02/13 06:33:57;;;;;;;14.88;5.07;;;7.70;99.90;;;;;;5035537;28;20061;-62
2022/02/13 06:36:24;;;;;;;11.10;4.43;;;7.70;99.90;;;;;;5030276;28;20128;-64
2022/02/13 06:38:51;;;;;;;13.80;4.88;;;7.70;99.90;;;;;;5051969;28;20065;-62
2022/02/13 06:41:19;;;;;;;16.77;5.72;;;7.70;99.90;;;;;;5053597;28;20052;-63
2022/02/13 06:43:46;;;;;;;8.75;4.57;;;7.70;99.90;;;;;;5052081;28;20143;-63
2022/02/13 06:46:13;;;;;;;10.73;5.25;;;7.70;99.90;;;;;;5053195;28;20163;-62
2022/02/13 06:48:40;;;;;;;14.55;4.25;;;7.70;99.90;;;;;;5040858;28;20793;-63
2022/02/13 06:51:08;;;;;;;11.90;4.38;;;7.70;99.90;;;;;;5049594;28;20053;-62
2022/02/13 06:53:35;;;;;;;11.30;4.75;;;7.70;99.90;;;;;;5027041;28;20053;-63
2022/02/13 06:56:03;;;;;;;13.13;4.22;;;7.70;99.90;;;;;;5045209;28;20049;-62
2022/02/13 06:58:30;;;;;;;10.40;4.53;;;7.70;99.90;;;;;;5052907;28;20052;-62
2022/02/13 07:00:57;;;;;;;12.00;4.20;;;7.70;99.90;;;;;;5048734;28;20900;-62
2022/02/13 07:03:24;;;;;;;11.52;4.05;;;7.70;99.90;;;;;;5048722;28;20404;-64
2022/02/13 07:05:51;;;;;;;6.97;3.42;;;7.70;99.90;;;;;;5051965;28;20045;-63
2022/02/13 07:08:17;;;;;;;14.48;4.30;;;7.70;99.90;;;;;;5051150;28;20051;-63
2022/02/13 07:10:44;;;;;;;10.88;3.72;;;7.70;99.90;;;;;;5035135;28;20052;-63
2022/02/13 07:13:11;;;;;;;8.68;3.75;;;7.70;99.90;;;;;;5051794;28;20045;-62
2022/02/13 07:15:38;;;;;;;8.85;3.17;;;7.60;99.90;;;;;;5052888;28;20152;-63
2022/02/13 07:18:06;;;;;;;10.60;2.95;;;7.60;99.90;;;;;;5050394;28;20056;-63
2022/02/13 07:20:33;;;;;;;7.32;3.47;;;7.60;99.90;;;;;;5046943;28;20060;-63
2022/02/13 07:23:00;;;;;;;7.55;3.50;;;7.60;99.90;;;;;;5050475;28;20045;-62
2022/02/13 07:25:26;;;;;;;16.13;3.67;;;7.50;99.90;;;;;;5041426;28;20053;-63
2022/02/13 07:27:53;;;;;;;13.10;4.68;;;7.50;99.90;;;;;;5036405;28;20053;-62
2022/02/13 07:30:25;;;;;;;9.60;3.08;;;7.50;99.90;;;;;;5044072;28;20051;-63
2022/02/13 07:32:52;;;;;;;12.95;3.22;;;7.40;99.90;;;;;;5031325;28;20409;-64
2022/02/13 07:35:19;;;;;;;9.25;4.43;;;7.40;99.90;;;;;;5036546;28;20515;-62
2022/02/13 07:37:46;;;;;;;10.48;3.03;;;7.30;99.90;;;;;;5051273;28;20053;-63
2022/02/13 07:40:13;;;;;;;9.63;3.15;;;7.40;99.90;;;;;;5049949;28;20045;-65
2022/02/13 07:42:42;;;;;;;7.93;2.83;;;7.40;99.90;;;;;;5056051;28;20045;-62
2022/02/13 07:45:11;;;;;;;8.00;3.58;;;7.40;99.90;;;;;;5026265;28;20049;-62
2022/02/13 07:47:38;;;;;;;6.80;2.55;;;7.40;99.90;;;;;;5048337;28;20045;-62
2022/02/13 07:50:05;;;;;;;13.43;3.60;;;7.50;99.90;;;;;;5037246;28;20049;-63
2022/02/13 07:52:32;;;;;;;9.65;3.00;;;7.50;99.90;;;;;;5043681;28;20049;-63
2022/02/13 07:54:59;;;;;;;7.82;3.13;;;7.50;99.90;;;;;;5032976;28;20044;-64
2022/02/13 07:57:26;;;;;;;11.30;4.43;;;7.50;99.90;;;;;;5051670;28;20064;-63
2022/02/13 07:59:53;;;;;;;10.55;3.28;;;7.40;99.90;;;;;;5050415;28;20056;-65
2022/02/13 08:02:20;;;;;;;6.38;2.63;;;7.40;99.90;;;;;;5040357;28;20049;-64
2022/02/13 08:04:47;;;;;;;11.35;3.40;;;7.40;99.90;;;;;;5051767;28;20053;-63
2022/02/13 08:07:14;;;;;;;10.68;3.25;;;7.40;99.90;;;;;;5050195;28;20071;-63
2022/02/13 08:09:42;;;;;;;10.73;3.13;;;7.40;99.90;;;;;;5048307;28;20040;-63
2022/02/13 08:12:09;;;;;;;10.48;3.53;;;7.40;99.90;;;;;;5050030;28;20048;-63
2022/02/13 08:14:36;;;;;;;9.77;3.97;;;7.40;99.90;;;;;;5047430;28;20045;-63
2022/02/13 08:17:03;;;;;;;8.40;2.80;;;7.40;99.90;;;;;;5046846;28;20064;-66
2022/02/13 08:19:35;;;;;;;13.15;3.50;;;7.40;99.90;;;;;;5040916;28;20053;-63
2022/02/13 08:22:07;;;;;;;13.07;3.47;;;7.50;99.90;;;;;;5050985;28;20056;-62
2022/02/13 08:24:34;;;;;;;12.80;3.35;;;7.50;99.90;;;;;;5048946;28;20044;-64
2022/02/13 08:27:01;;;;;;;7.50;2.85;;;7.50;99.90;;;;;;5040533;28;20204;-63
2022/02/13 08:29:28;;;;;;;11.25;2.95;;;7.60;99.90;;;;;;5050992;28;20045;-63
2022/02/13 08:31:55;;;;;;;8.63;3.15;;;7.60;99.90;;;;;;5049742;28;20055;-63
2022/02/13 08:34:24;;;;;;;8.20;2.83;;;7.60;99.90;;;;;;5048326;28;20045;-63
2022/02/13 08:36:51;;;;;;;11.20;3.00;;;7.70;99.90;;;;;;5051403;28;20088;-62
2022/02/13 08:39:18;;;;;;;8.48;3.83;;;7.70;99.90;;;;;;5048883;28;20040;-63
2022/02/13 08:41:45;;;;;;;10.70;3.60;;;7.80;99.90;;;;;;5049688;28;20049;-63
2022/02/13 08:44:12;;;;;;;9.80;3.90;;;7.80;99.90;;;;;;5040262;28;20052;-62
2022/02/13 08:46:39;;;;;;;7.22;2.28;;;7.80;99.90;;;;;;5049797;28;20120;-63
2022/02/13 08:49:06;;;;;;;13.05;4.45;;;7.80;99.90;;;;;;5040105;28;20046;-64
2022/02/13 08:51:33;;;;;;;12.68;3.90;;;7.80;99.90;;;;;;5050163;28;20053;-63
2022/02/13 08:54:00;;;;;;;9.98;2.60;;;7.90;99.90;;;;;;5053323;28;20099;-63
2022/02/13 08:56:27;;;;;;;11.85;3.15;;;7.90;99.90;;;;;;5049618;28;20045;-63
2022/02/13 08:58:55;;;;;;;15.40;3.97;;;7.90;99.90;;;;;;5055394;28;20056;-63
2022/02/13 09:01:23;;;;;;;13.07;3.97;;;7.90;99.90;;;;;;5036084;28;20042;-63
2022/02/13 09:03:50;;;;;;;10.35;2.83;;;8.00;99.90;;;;;;5047213;28;20049;-62
2022/02/13 09:06:17;;;;;;;9.15;3.22;;;8.00;99.90;;;;;;5046131;28;20084;-63
2022/02/13 09:08:45;;;;;;;10.88;3.10;;;8.00;99.90;;;;;;5049489;28;20045;-64
2022/02/13 09:11:12;;;;;;;22.42;12.20;;;8.10;99.90;;;;;;5053399;28;20047;-63
2022/02/13 09:13:39;;;;;;;13.23;4.78;;;8.10;99.90;;;;;;5053465;28;20045;-62
2022/02/13 09:16:06;;;;;;;13.85;3.55;;;8.10;99.90;;;;;;5053611;28;20384;-63
2022/02/13 09:18:34;;;;;;;9.27;3.00;;;8.10;99.90;;;;;;5051170;28;20493;-62
2022/02/13 09:21:01;;;;;;;10.60;3.60;;;8.10;99.90;;;;;;5036078;28;20053;-62
2022/02/13 09:23:28;;;;;;;12.85;5.00;;;8.10;99.90;;;;;;5034585;28;20045;-62
2022/02/13 09:25:54;;;;;;;10.15;3.83;;;8.10;99.90;;;;;;5035053;28;20041;-63
2022/02/13 09:28:21;;;;;;;13.00;4.65;;;8.10;99.90;;;;;;5041600;28;20041;-63
2022/02/13 09:30:50;;;;;;;8.57;3.45;;;8.20;99.90;;;;;;5050965;28;20477;-70
2022/02/13 09:33:20;;;;;;;13.02;5.90;;;8.20;99.90;;;;;;5053203;28;20400;-73
2022/02/13 09:35:47;;;;;;;8.63;3.50;;;8.20;99.90;;;;;;5051552;28;20056;-71
2022/02/13 09:38:15;;;;;;;10.75;4.25;;;8.30;99.90;;;;;;5035387;28;20131;-71
2022/02/13 09:40:43;;;;;;;10.05;4.38;;;8.30;99.90;;;;;;5049388;28;20413;-72
2022/02/13 09:43:10;;;;;;;12.60;4.70;;;8.30;99.90;;;;;;5053372;28;20045;-71
2022/02/13 09:45:40;;;;;;;6.93;3.45;;;8.30;99.90;;;;;;5033302;28;20045;-77
2022/02/13 09:48:07;;;;;;;13.57;4.40;;;8.30;99.90;;;;;;5043749;28;20041;-69
2022/02/13 09:50:36;;;;;;;10.75;4.45;;;8.40;99.90;;;;;;5036968;28;20052;-68
2022/02/13 09:53:06;;;;;;;15.82;4.93;;;8.40;99.90;;;;;;5049467;28;20049;-69
2022/02/13 09:55:34;;;;;;;14.15;3.92;;;8.50;99.90;;;;;;5052938;28;20627;-66
2022/02/13 09:58:02;;;;;;;11.65;4.75;;;8.50;99.90;;;;;;5051316;28;20061;-67
2022/02/13 10:00:54;;;;;;;16.65;6.07;;;8.50;99.90;;;;;;5050332;28;20049;-68
2022/02/13 10:03:30;;;;;;;19.38;4.70;;;8.50;99.90;;;;;;5048678;28;20049;-64
2022/02/13 10:06:00;;;;;;;18.55;5.30;;;8.60;99.90;;;;;;5052552;28;20051;-65
2022/02/13 10:08:35;;;;;;;12.25;3.45;;;8.50;99.90;;;;;;5053637;28;20176;-64
2022/02/13 10:11:12;;;;;;;13.57;4.53;;;8.60;99.90;;;;;;5052886;28;20045;-66
2022/02/13 10:13:46;;;;;;;8.43;4.00;;;8.60;99.90;;;;;;5053347;28;20044;-67
2022/02/13 10:16:36;;;;;;;15.23;4.40;;;8.60;99.90;;;;;;5046414;28;20150;-65
2022/02/13 10:19:15;;;;;;;50.63;33.80;;;8.60;99.90;;;;;;5043463;28;20413;-64
2022/02/13 10:21:45;;;;;;;12.93;5.90;;;8.80;99.90;;;;;;5043535;28;20050;-65
2022/02/13 10:24:19;;;;;;;12.05;4.60;;;8.80;99.90;;;;;;5040682;28;20049;-64
2022/02/13 10:27:08;;;;;;;14.52;4.70;;;8.80;99.90;;;;;;5034554;28;20052;-64
2022/02/13 10:29:37;;;;;;;15.23;5.07;;;8.70;99.90;;;;;;5041694;28;20041;-63
2022/02/13 10:32:27;;;;;;;12.15;4.07;;;8.70;99.90;;;;;;5051367;28;20053;-63
2022/02/13 10:35:15;;;;;;;9.82;4.55;;;8.60;99.90;;;;;;5048366;28;20052;-63
2022/02/13 10:37:51;;;;;;;10.07;4.15;;;8.60;99.90;;;;;;5034097;28;20044;-67
2022/02/13 10:40:28;;;;;;;12.90;5.07;;;8.60;99.90;;;;;;5032039;28;20401;-62
2022/02/13 10:43:09;;;;;;;10.95;4.55;;;8.60;99.90;;;;;;5031441;28;20128;-64
2022/02/13 10:45:39;;;;;;;18.85;5.05;;;8.50;99.90;;;;;;5031939;28;20072;-62
2022/02/13 10:48:07;;;;;;;9.23;5.63;;;8.50;99.90;;;;;;5031258;28;20052;-66
2022/02/13 10:50:35;;;;;;;12.25;4.55;;;8.50;99.90;;;;;;5034579;28;20396;-62
2022/02/13 10:53:03;;;;;;;10.82;3.63;;;8.50;99.90;;;;;;5032799;28;20042;-62
2022/02/13 10:55:32;;;;;;;11.68;4.57;;;8.40;99.90;;;;;;5032512;28;20041;-62
2022/02/13 10:57:59;;;;;;;12.18;4.70;;;8.40;99.90;;;;;;5015109;28;20056;-63
2022/02/13 11:00:27;;;;;;;9.60;3.97;;;8.50;99.90;;;;;;5031566;28;20038;-62
2022/02/13 11:02:56;;;;;;;;;;;8.50;99.90;;;;;;5016441;28;20049;-62
2022/02/13 11:05:25;;;;;;;14.10;4.63;;;8.50;99.90;;;;;;5016020;28;19925;-63
2022/02/13 11:08:01;;;;;;;8.63;4.13;;;8.40;99.90;;;;;;5032021;28;20073;-62
2022/02/13 11:10:36;;;;;;;12.30;4.35;;;8.40;99.90;;;;;;5021024;28;20045;-63
2022/02/13 11:13:03;;;;;;;14.30;5.03;;;8.40;99.90;;;;;;5037260;28;20065;-63
2022/02/13 11:15:32;;;;;;;12.35;5.00;;;8.40;99.90;;;;;;5045460;28;20049;-62
2022/02/13 11:18:04;;;;;;;10.25;4.15;;;8.40;99.90;;;;;;5033667;28;20057;-63
2022/02/13 11:20:31;;;;;;;72.40;48.00;;;8.40;99.90;;;;;;5051324;28;20045;-63
2022/02/13 11:23:24;;;;;;;15.77;6.68;;;8.50;99.90;;;;;;5035830;28;20052;-62
2022/02/13 11:25:58;;;;;;;12.70;4.85;;;8.60;99.90;;;;;;5050083;28;20071;-65
2022/02/13 11:28:45;;;;;;;12.13;4.80;;;8.60;99.90;;;;;;5052329;28;20045;-62
2022/02/13 11:31:32;;;;;;;11.05;4.70;;;8.50;99.90;;;;;;5047361;28;20504;-62
2022/02/13 11:33:59;;;;;;;15.95;5.00;;;8.50;99.90;;;;;;5051624;28;20053;-62
2022/02/13 11:36:44;;;;;;;13.65;4.68;;;8.50;99.90;;;;;;5034631;28;20053;-63
2022/02/13 11:39:11;;;;;;;14.15;4.20;;;8.50;99.90;;;;;;5048606;28;20052;-62
2022/02/13 11:41:50;;;;;;;13.38;5.30;;;8.60;99.90;;;;;;5031429;28;20059;-62
2022/02/13 11:44:37;;;;;;;14.30;4.93;;;8.60;99.90;;;;;;5052233;28;20041;-64
2022/02/13 11:47:09;;;;;;;11.20;4.30;;;8.60;99.90;;;;;;4996297;28;20042;-67
2022/02/13 11:50:09;;;;;;;12.73;3.67;;;8.60;99.90;;;;;;5032145;28;20503;-66
2022/02/13 11:52:38;;;;;;;11.88;5.78;;;8.60;99.90;;;;;;5026315;28;20042;-65
2022/02/13 11:55:08;;;;;;;8.15;3.83;;;8.70;99.90;;;;;;5031784;28;20061;-65
2022/02/13 11:57:35;;;;;;;11.05;4.07;;;8.60;99.90;;;;;;5038629;28;20150;-65
2022/02/13 12:00:06;;;;;;;11.90;4.30;;;8.60;99.90;;;;;;5012800;28;20069;-68
2022/02/13 12:02:37;;;;;;;13.55;4.75;;;8.60;99.90;;;;;;5010503;28;20057;-66
2022/02/13 12:05:10;;;;;;;8.85;4.28;;;8.60;99.90;;;;;;5012414;28;20046;-66
2022/02/13 12:07:43;;;;;;;10.57;3.78;;;8.60;99.90;;;;;;5012313;28;20058;-66
2022/02/13 12:10:25;;;;;;;11.48;4.88;;;8.70;99.90;;;;;;5012273;28;20564;-69
2022/02/13 12:12:52;;;;;;;12.25;5.35;;;8.80;99.90;;;;;;5041005;28;20811;-66
2022/02/13 12:15:23;;;;;;;10.75;4.65;;;8.90;99.90;;;;;;5045906;28;20128;-66
2022/02/13 12:17:51;;;;;;;14.40;5.07;;;8.90;99.90;;;;;;5014754;28;20052;-69
2022/02/13 12:20:19;;;;;;;17.50;5.35;;;8.90;99.90;;;;;;5036595;28;20106;-67
2022/02/13 12:22:46;;;;;;;16.80;7.53;;;9.00;99.90;;;;;;5036234;28;20049;-72
2022/02/13 12:25:13;;;;;;;16.95;5.43;;;9.10;99.90;;;;;;5049951;28;20124;-70
2022/02/13 12:27:45;;;;;;;10.95;5.68;;;9.20;99.90;;;;;;5050313;28;20053;-66
2022/02/13 12:30:14;;;;;;;9.90;4.75;;;9.20;99.90;;;;;;5034780;28;20393;-74
2022/02/13 12:32:41;;;;;;;12.48;4.18;;;9.20;99.90;;;;;;5033451;28;20061;-70
2022/02/13 12:35:15;;;;;;;15.20;4.88;;;9.20;99.90;;;;;;5050316;28;20049;-69
2022/02/13 12:37:46;;;;;;;11.50;5.03;;;9.20;99.90;;;;;;5051045;28;20072;-69
2022/02/13 12:40:21;;;;;;;26.60;18.70;;;9.30;99.90;;;;;;5050474;28;20096;-74
2022/02/13 12:42:49;;;;;;;16.92;5.78;;;9.40;99.90;;;;;;5044442;28;20047;-66
2022/02/13 12:45:25;;;;;;;22.88;9.57;;;9.70;99.90;;;;;;5050214;28;20412;-62
2022/02/13 12:47:54;;;;;;;13.35;5.45;;;10.20;99.90;;;;;;5034289;28;20423;-62
2022/02/13 12:50:23;;;;;;;14.60;4.78;;;10.50;96.30;;;;;;5032458;28;20535;-67
2022/02/13 12:52:50;;;;;;;13.98;5.18;;;10.20;97.10;;;;;;5050382;28;20053;-66
2022/02/13 12:55:19;;;;;;;10.23;4.00;;;10.00;97.90;;;;;;5050278;28;20049;-66